Reykjavik, Iceland
Current Conditions -  °F | °C
As of 8:00 PM on Thursday 18 Dec 2014 (Local Time) from BIRK Reporting Station
Few Clouds Few Clouds  
Wind Chill: -6°   Ceiling: Unl
Heat Index: -1°   Visibility: 6mi
Dew Point: -5°   Wind: 10mph
Humidity: 75%   Direction: 330°NNW
Pressure: 28.79"   Gusts: NA
Location:  64.14°N, 21.92°W
Report Text: BIRK 182000Z 33009KT 9999 FEW035 M01/M05 Q0975 R01/790243
Loading
Personal Weather Stations






























Interactive Weather Map New forecast layout! Learn more

10-Day Weather Forecast

Advertisements
Track Severe Weather on mobile